Main page
METAR-TAF:

METAR-TAF

Airports :

St. Catharines/Niagara District Airport

St. Catharines, Ontario, Canada

latitude: 43-12N, longitude: 079-10W, elevation: 321 ft

Current weather observation

The report was made 43 minutes ago, at 21:00 UTC
Wind 3 mph from variable directions
Temperature 50°F
Humidity 34%
Pressure 29.93 in. Hg
Visibility: 15 miles
Few clouds at a height of 4000 ft

METAR: CYSN 012100Z VRB03KT 15SM FEW040 10/M05 A2993 RMK SC1 SLP139

Time: 17:43 (21:43 UTC)

Forecast

The report was made 2 hours and 4 minutes ago, at 19:39 UTC
Forecast valid from 01 at 20 UTC to 02 at 01 UTC
Wind 9 mph from the North
Visibility: 6 miles
Few clouds at a height of 4000 ft
Becoming
from 01 at 22 UTC to 01 at 24 UTC
Wind 3 mph from variable directions

TAF: CYSN 011939Z 0120/0201 01008KT P6SM FEW040 BECMG 0122/0124 VRB03KT RMK NXT FCST WILL BE ISSUED AT 021245Z

Weather observations and forecasts of more than 4000 airports (METAR and TAF reports).

The available stations are represented by yellow and red dots on the map.

Hover mouse over dot to see the name of the station.

Then click to see weather observations and forecasts.

To change the map : click on the green buttons with a black cross to zoom in, on the green button with a dash to zoom out, or on the green arrows for adjacent maps.


METAR-TAF: